createdAt,value
2017-11-06T00:00:16.563Z,13.53
2017-11-06T00:02:45.052Z,13.17
2017-11-06T00:05:13.332Z,5.60
2017-11-06T00:07:41.640Z,8.17
2017-11-06T00:10:11.423Z,7.17
2017-11-06T00:12:40.567Z,15.73
2017-11-06T00:15:08.892Z,9.37
2017-11-06T00:17:38.059Z,9.90
2017-11-06T00:20:06.350Z,13.63
2017-11-06T00:22:34.632Z,6.90
2017-11-06T00:25:02.948Z,10.07
2017-11-06T00:27:31.995Z,13.30
2017-11-06T00:30:00.331Z,13.73
2017-11-06T00:32:28.718Z,10.70
2017-11-06T00:34:57.020Z,12.90
2017-11-06T00:37:25.304Z,12.73
2017-11-06T00:39:53.628Z,7.13
2017-11-06T00:42:21.922Z,13.67
2017-11-06T00:44:50.475Z,12.40
2017-11-06T00:47:18.771Z,10.47
2017-11-06T00:49:47.059Z,13.80
2017-11-06T00:52:15.372Z,13.00
2017-11-06T00:54:44.543Z,15.60
2017-11-06T00:57:12.826Z,16.03
2017-11-06T00:59:41.146Z,18.80
2017-11-06T01:02:10.239Z,17.30
2017-11-06T01:04:38.555Z,18.53
2017-11-06T01:07:07.599Z,18.90
2017-11-06T01:09:35.924Z,22.13
2017-11-06T01:12:04.248Z,18.87
2017-11-06T01:14:32.559Z,15.80
2017-11-06T01:17:00.848Z,16.50
2017-11-06T01:19:29.270Z,25.20
2017-11-06T01:21:57.592Z,16.50
2017-11-06T01:24:26.643Z,16.10
2017-11-06T01:26:54.975Z,19.33
2017-11-06T01:29:23.359Z,20.00
2017-11-06T01:31:51.651Z,20.80
2017-11-06T01:34:19.966Z,17.80
2017-11-06T01:36:49.020Z,17.87
2017-11-06T01:39:17.362Z,18.23
2017-11-06T01:41:46.414Z,21.87
2017-11-06T01:44:14.706Z,17.00
2017-11-06T01:46:43.042Z,18.93
2017-11-06T01:49:11.411Z,16.47
2017-11-06T01:51:39.699Z,16.40
2017-11-06T01:54:08.003Z,19.03
2017-11-06T01:56:38.243Z,20.00
2017-11-06T01:59:07.539Z,23.43
2017-11-06T02:01:35.833Z,17.27
2017-11-06T02:04:04.118Z,19.30
2017-11-06T02:06:32.443Z,18.20
2017-11-06T02:09:00.851Z,33.10
2017-11-06T02:11:29.152Z,15.60
2017-11-06T02:13:57.464Z,18.03
2017-11-06T02:16:25.751Z,13.10
2017-11-06T02:18:54.104Z,19.40
2017-11-06T02:21:22.400Z,20.87
2017-11-06T02:23:50.685Z,20.10
2017-11-06T02:26:18.988Z,17.97
2017-11-06T02:28:47.303Z,14.60
2017-11-06T02:31:15.591Z,22.20
2017-11-06T02:33:43.911Z,20.90
2017-11-06T02:36:12.992Z,14.93
2017-11-06T02:38:41.318Z,19.30
2017-11-06T02:41:10.372Z,24.43
2017-11-06T02:43:38.687Z,16.40
2017-11-06T02:46:08.471Z,16.10
2017-11-06T02:48:36.788Z,15.77
2017-11-06T02:51:05.103Z,19.57
2017-11-06T02:53:34.189Z,19.03
2017-11-06T02:56:03.264Z,26.30
2017-11-06T02:58:31.618Z,17.43
2017-11-06T03:00:59.931Z,15.43
2017-11-06T03:03:28.282Z,13.93
2017-11-06T03:05:56.559Z,16.10
2017-11-06T03:08:24.882Z,13.27
2017-11-06T03:10:53.969Z,22.33
2017-11-06T03:13:22.283Z,11.73
2017-11-06T03:15:51.352Z,14.60
2017-11-06T03:18:19.640Z,11.43
2017-11-06T03:20:47.952Z,13.70
2017-11-06T03:23:16.320Z,13.10
2017-11-06T03:25:44.611Z,11.13
2017-11-06T03:28:13.006Z,17.20
2017-11-06T03:30:41.291Z,10.80
2017-11-06T03:33:09.624Z,18.43
2017-11-06T03:35:37.932Z,16.53
2017-11-06T03:38:06.219Z,15.10
2017-11-06T03:40:34.659Z,11.90
2017-11-06T03:43:03.148Z,16.83
2017-11-06T03:45:31.431Z,13.13
2017-11-06T03:48:01.060Z,15.27
2017-11-06T03:50:29.347Z,13.80
2017-11-06T03:52:57.661Z,14.80
2017-11-06T03:55:25.941Z,11.27
2017-11-06T03:57:55.031Z,12.47
2017-11-06T04:00:23.320Z,19.40
2017-11-06T04:02:51.819Z,17.03
2017-11-06T04:05:20.104Z,18.70
2017-11-06T04:07:48.495Z,15.80
2017-11-06T04:10:16.803Z,11.90
2017-11-06T04:12:45.891Z,19.27
2017-11-06T04:15:14.215Z,15.17
2017-11-06T04:17:43.267Z,22.40
2017-11-06T04:20:12.366Z,12.97
2017-11-06T04:22:40.655Z,18.83
2017-11-06T04:25:09.023Z,12.57
2017-11-06T04:27:37.422Z,14.07
2017-11-06T04:30:05.715Z,14.80
2017-11-06T04:32:34.036Z,19.00
2017-11-06T04:35:02.349Z,12.40
2017-11-06T04:37:30.635Z,16.00
2017-11-06T04:39:58.923Z,20.30
2017-11-06T04:42:27.247Z,13.23
2017-11-06T04:44:55.568Z,15.53
2017-11-06T04:47:23.853Z,16.87
2017-11-06T04:49:52.191Z,14.57
2017-11-06T04:52:21.244Z,19.40
2017-11-06T04:54:49.528Z,19.07
2017-11-06T04:57:17.840Z,26.07
2017-11-06T04:59:46.148Z,12.97
2017-11-06T05:02:14.438Z,18.43
2017-11-06T05:04:42.755Z,18.40
2017-11-06T05:07:11.806Z,19.33
2017-11-06T05:09:40.132Z,18.00
2017-11-06T05:12:08.414Z,18.90
2017-11-06T05:14:37.491Z,14.23
2017-11-06T05:17:05.767Z,23.53
2017-11-06T05:19:34.084Z,16.30
2017-11-06T05:22:02.373Z,19.27
2017-11-06T05:24:30.692Z,18.57
2017-11-06T05:26:59.044Z,16.43
2017-11-06T05:29:27.351Z,18.87
2017-11-06T05:31:55.643Z,20.40
2017-11-06T05:34:26.178Z,20.53
2017-11-06T05:36:54.468Z,16.37
2017-11-06T05:39:22.764Z,19.03
2017-11-06T05:41:51.077Z,17.57
2017-11-06T05:44:19.639Z,12.43
2017-11-06T05:46:47.928Z,19.63
2017-11-06T05:49:16.216Z,17.53
2017-11-06T05:51:44.539Z,21.63
2017-11-06T05:54:13.590Z,24.70
2017-11-06T05:56:41.903Z,18.77
2017-11-06T05:59:10.188Z,16.57
2017-11-06T06:01:38.592Z,22.07
2017-11-06T06:04:06.929Z,13.63
2017-11-06T06:06:35.202Z,16.03
2017-11-06T06:09:04.264Z,13.20
2017-11-06T06:11:32.583Z,16.07
2017-11-06T06:14:00.880Z,19.27
2017-11-06T06:16:29.967Z,18.23
2017-11-06T06:18:58.246Z,14.20
2017-11-06T06:21:26.551Z,20.33
2017-11-06T06:23:54.839Z,14.93
2017-11-06T06:26:23.224Z,18.97
2017-11-06T06:28:51.503Z,15.87
2017-11-06T06:31:19.902Z,15.07
2017-11-06T06:33:48.193Z,11.57
2017-11-06T06:36:16.514Z,19.33
2017-11-06T06:38:45.564Z,23.63
2017-11-06T06:41:14.074Z,16.47
2017-11-06T06:43:42.377Z,13.90
2017-11-06T06:46:10.703Z,14.17
2017-11-06T06:48:38.987Z,15.70
2017-11-06T06:51:07.343Z,18.83
2017-11-06T06:53:35.663Z,16.60
2017-11-06T06:56:04.743Z,18.30
2017-11-06T06:58:34.542Z,15.60
2017-11-06T07:01:02.956Z,14.03
2017-11-06T07:03:31.243Z,13.13
2017-11-06T07:05:59.738Z,18.13
2017-11-06T07:08:28.027Z,14.00
2017-11-06T07:10:56.307Z,12.17
2017-11-06T07:13:24.620Z,11.30
2017-11-06T07:15:55.456Z,13.93
2017-11-06T07:18:23.744Z,10.23
2017-11-06T07:20:52.028Z,10.80
2017-11-06T07:23:20.335Z,14.30
2017-11-06T07:25:48.644Z,12.33
2017-11-06T07:28:17.695Z,12.10
2017-11-06T07:30:46.000Z,11.07
2017-11-06T07:33:14.283Z,14.60
2017-11-06T07:35:42.682Z,21.13
2017-11-06T07:38:10.968Z,11.10
2017-11-06T07:40:39.375Z,9.80
2017-11-06T07:43:07.687Z,14.80
2017-11-06T07:45:36.740Z,18.63
2017-11-06T07:48:05.161Z,11.87
2017-11-06T07:50:33.433Z,17.43
2017-11-06T07:53:01.721Z,11.77
2017-11-06T07:55:30.039Z,10.70
2017-11-06T07:57:59.131Z,9.77
2017-11-06T08:00:28.923Z,12.67
2017-11-06T08:02:57.247Z,19.17
2017-11-06T08:05:25.528Z,10.30
2017-11-06T08:07:53.832Z,9.83
2017-11-06T08:10:22.116Z,18.13
2017-11-06T08:12:50.431Z,10.03
2017-11-06T08:15:19.480Z,11.40
2017-11-06T08:17:47.789Z,10.03
2017-11-06T08:20:16.099Z,12.97
2017-11-06T08:22:44.587Z,10.90
2017-11-06T08:25:12.972Z,12.40
2017-11-06T08:27:41.259Z,11.67
2017-11-06T08:30:09.652Z,12.20
2017-11-06T08:32:37.943Z,9.97
2017-11-06T08:35:06.261Z,10.63
2017-11-06T08:37:35.332Z,12.33
2017-11-06T08:40:03.620Z,10.00
2017-11-06T08:42:31.933Z,10.17
2017-11-06T08:45:00.212Z,9.00
2017-11-06T08:47:28.603Z,15.57
2017-11-06T08:49:56.888Z,10.60
2017-11-06T08:52:26.686Z,10.80
2017-11-06T08:54:54.993Z,8.70
2017-11-06T08:57:23.307Z,10.60
2017-11-06T08:59:51.724Z,11.13
2017-11-06T09:02:20.045Z,10.20
2017-11-06T09:04:48.326Z,10.93
2017-11-06T09:07:16.607Z,11.93
2017-11-06T09:09:44.932Z,14.20
2017-11-06T09:12:13.207Z,10.30
2017-11-06T09:14:41.523Z,10.20
2017-11-06T09:17:09.821Z,10.53
2017-11-06T09:19:39.018Z,9.87
2017-11-06T09:22:07.294Z,12.50
2017-11-06T09:24:35.608Z,12.37
2017-11-06T09:27:03.888Z,8.97
2017-11-06T09:29:33.415Z,8.33
2017-11-06T09:32:01.695Z,13.50
2017-11-06T09:34:30.056Z,11.90
2017-11-06T09:36:58.363Z,12.33
2017-11-06T09:39:26.767Z,15.43
2017-11-06T09:41:55.155Z,10.50
2017-11-06T09:44:23.436Z,8.50
2017-11-06T09:46:51.715Z,10.03
2017-11-06T09:49:20.019Z,11.80
2017-11-06T09:51:48.308Z,17.30
2017-11-06T09:54:17.819Z,11.27
2017-11-06T09:56:46.108Z,13.63
2017-11-06T09:59:14.416Z,10.37
2017-11-06T10:01:42.708Z,15.67
2017-11-06T10:04:11.022Z,9.10
2017-11-06T10:06:40.112Z,12.63
2017-11-06T10:09:09.159Z,11.53
2017-11-06T10:11:37.483Z,10.00
2017-11-06T10:14:05.771Z,12.33
2017-11-06T10:16:34.079Z,13.30
2017-11-06T10:19:02.383Z,7.30
2017-11-06T10:21:31.426Z,11.93
2017-11-06T10:23:59.847Z,11.33
2017-11-06T10:26:28.139Z,11.13
2017-11-06T10:28:57.965Z,9.40
2017-11-06T10:31:26.455Z,9.07
2017-11-06T10:33:54.735Z,9.73
2017-11-06T10:36:23.024Z,11.07
2017-11-06T10:38:51.330Z,7.97
2017-11-06T10:41:19.615Z,10.97
2017-11-06T10:43:48.075Z,13.03
2017-11-06T10:46:16.360Z,9.07
2017-11-06T10:48:44.684Z,7.73
2017-11-06T10:51:12.967Z,9.43
2017-11-06T10:53:41.371Z,6.93
2017-11-06T10:56:09.758Z,7.23
2017-11-06T10:58:38.064Z,7.57
2017-11-06T11:01:06.379Z,10.67
2017-11-06T11:03:34.724Z,8.60
2017-11-06T11:06:04.060Z,7.30
2017-11-06T11:08:32.339Z,7.23
2017-11-06T11:11:00.714Z,12.43
2017-11-06T11:13:28.997Z,9.10
2017-11-06T11:15:57.280Z,6.33
2017-11-06T11:18:25.691Z,11.10
2017-11-06T11:20:54.075Z,14.43
2017-11-06T11:23:22.363Z,11.63
2017-11-06T11:25:50.657Z,10.90
2017-11-06T11:28:18.959Z,9.13
2017-11-06T11:30:47.442Z,8.77
2017-11-06T11:33:15.719Z,6.33
2017-11-06T11:35:43.995Z,6.20
2017-11-06T11:38:12.299Z,9.80
2017-11-06T11:40:40.611Z,12.53
2017-11-06T11:43:08.987Z,8.90
2017-11-06T11:45:37.299Z,7.13
2017-11-06T11:48:06.352Z,9.17
2017-11-06T11:50:34.623Z,7.73
2017-11-06T11:53:02.966Z,7.20
2017-11-06T11:55:31.281Z,5.80
2017-11-06T11:58:00.320Z,9.10
2017-11-06T12:00:28.636Z,8.47
2017-11-06T12:02:56.950Z,6.50
2017-11-06T12:05:25.331Z,6.00
2017-11-06T12:07:53.615Z,7.67
2017-11-06T12:10:21.932Z,9.50
2017-11-06T12:12:51.021Z,6.80
2017-11-06T12:15:19.304Z,8.60
2017-11-06T12:17:47.618Z,8.83
2017-11-06T12:20:16.659Z,4.90
2017-11-06T12:22:44.963Z,9.40
2017-11-06T12:25:13.259Z,6.10
2017-11-06T12:27:41.539Z,7.57
2017-11-06T12:30:09.852Z,8.23
2017-11-06T12:32:38.136Z,7.30
2017-11-06T12:35:06.455Z,7.53
2017-11-06T12:37:34.738Z,8.53
2017-11-06T12:40:03.056Z,10.10
2017-11-06T12:42:31.382Z,7.07
2017-11-06T12:44:59.670Z,8.33
2017-11-06T12:47:27.983Z,4.60
2017-11-06T12:49:56.371Z,7.83
2017-11-06T12:52:24.678Z,3.67
2017-11-06T12:54:52.974Z,5.57
2017-11-06T12:57:21.287Z,3.80
2017-11-06T12:59:49.567Z,6.70
2017-11-06T13:02:17.875Z,5.60
2017-11-06T13:04:46.212Z,4.50
2017-11-06T13:07:14.539Z,5.43
2017-11-06T13:09:42.895Z,9.23
2017-11-06T13:12:12.929Z,3.43
2017-11-06T13:14:41.317Z,2.93
2017-11-06T13:17:09.706Z,6.70
2017-11-06T13:19:38.023Z,4.80
2017-11-06T13:22:07.122Z,7.00
2017-11-06T13:24:36.179Z,5.00
2017-11-06T13:27:04.515Z,5.13
2017-11-06T13:29:32.800Z,5.70
2017-11-06T13:32:01.183Z,3.40
2017-11-06T13:34:29.467Z,5.60
2017-11-06T13:36:57.796Z,6.43
2017-11-06T13:39:26.102Z,3.93
2017-11-06T13:41:54.415Z,3.90
2017-11-06T13:44:22.704Z,12.00
2017-11-06T13:46:51.215Z,6.57
2017-11-06T13:49:19.615Z,5.17
2017-11-06T13:51:47.907Z,7.70
2017-11-06T13:54:16.222Z,2.47
2017-11-06T13:56:45.303Z,6.33
2017-11-06T13:59:13.596Z,6.10
2017-11-06T14:01:41.915Z,7.00
2017-11-06T14:04:10.335Z,3.23
2017-11-06T14:06:38.657Z,2.70
2017-11-06T14:09:06.951Z,3.90
2017-11-06T14:11:36.779Z,5.27
2017-11-06T14:14:05.060Z,3.53
2017-11-06T14:16:34.995Z,4.67
2017-11-06T14:19:03.279Z,6.20
2017-11-06T14:21:31.666Z,3.73
2017-11-06T14:23:59.951Z,11.50
2017-11-06T14:26:28.240Z,3.40
2017-11-06T14:28:56.556Z,3.00
2017-11-06T14:31:25.607Z,11.53
2017-11-06T14:33:54.030Z,3.47
2017-11-06T14:36:22.308Z,2.83
2017-11-06T14:38:50.593Z,3.70
2017-11-06T14:41:18.904Z,8.50
2017-11-06T14:43:47.299Z,7.93
2017-11-06T14:46:15.783Z,4.13
2017-11-06T14:48:44.105Z,5.30
2017-11-06T14:51:13.386Z,6.03
2017-11-06T14:53:41.666Z,11.93
2017-11-06T14:56:09.946Z,7.70
2017-11-06T14:58:38.271Z,6.90
2017-11-06T15:01:06.548Z,6.53
2017-11-06T15:03:34.852Z,6.13
2017-11-06T15:06:03.140Z,11.33
2017-11-06T15:08:31.444Z,5.70
2017-11-06T15:11:00.491Z,9.30
2017-11-06T15:13:28.818Z,9.53
2017-11-06T15:15:57.103Z,8.77
2017-11-06T15:18:25.387Z,2.90
2017-11-06T15:20:53.694Z,8.40
2017-11-06T15:23:21.989Z,18.90
2017-11-06T15:25:51.032Z,7.40
2017-11-06T15:28:19.363Z,5.70
2017-11-06T15:30:47.643Z,6.00
2017-11-06T15:33:15.959Z,4.67
2017-11-06T15:35:44.231Z,7.63
2017-11-06T15:38:12.535Z,11.70
2017-11-06T15:40:41.589Z,5.70
2017-11-06T15:43:09.908Z,3.93
2017-11-06T15:45:38.187Z,7.53
2017-11-06T15:48:06.506Z,5.03
2017-11-06T15:50:34.780Z,6.60
2017-11-06T15:53:03.095Z,12.30
2017-11-06T15:55:32.135Z,4.50
2017-11-06T15:58:00.454Z,9.90
2017-11-06T16:00:28.760Z,12.93
2017-11-06T16:02:57.083Z,10.17
2017-11-06T16:05:26.128Z,9.83
2017-11-06T16:07:54.443Z,11.87
2017-11-06T16:10:22.731Z,19.43
2017-11-06T16:12:52.390Z,16.47
2017-11-06T16:15:21.667Z,13.80
2017-11-06T16:17:50.775Z,7.97
2017-11-06T16:20:19.154Z,6.93
2017-11-06T16:22:47.459Z,8.90
2017-11-06T16:25:15.743Z,7.83
2017-11-06T16:27:44.056Z,5.07
2017-11-06T16:30:13.055Z,3.73
2017-11-06T16:32:41.409Z,3.10
2017-11-06T16:35:09.698Z,3.93
2017-11-06T16:37:37.986Z,8.40
2017-11-06T16:40:06.316Z,10.00
2017-11-06T16:42:34.602Z,8.43
2017-11-06T16:45:02.930Z,9.43
2017-11-06T16:47:31.236Z,7.50
2017-11-06T16:49:59.539Z,10.20
2017-11-06T16:52:27.827Z,9.03
2017-11-06T16:54:56.147Z,6.80
2017-11-06T16:57:26.051Z,7.20
2017-11-06T16:59:54.541Z,9.93
2017-11-06T17:02:22.819Z,6.30
2017-11-06T17:04:51.131Z,7.43
2017-11-06T17:07:19.451Z,14.17
2017-11-06T17:09:47.795Z,8.00
2017-11-06T17:12:16.079Z,4.30
2017-11-06T17:14:44.377Z,5.53
2017-11-06T17:17:12.779Z,6.03
2017-11-06T17:19:41.161Z,5.67
2017-11-06T17:22:09.560Z,9.43
2017-11-06T17:24:37.840Z,4.50
2017-11-06T17:27:06.119Z,7.20
2017-11-06T17:29:34.453Z,5.17
2017-11-06T17:32:02.843Z,5.53
2017-11-06T17:34:31.127Z,15.20
2017-11-06T17:36:59.817Z,11.40
2017-11-06T17:39:28.120Z,7.57
2017-11-06T17:41:56.404Z,8.63
2017-11-06T17:44:24.723Z,6.43
2017-11-06T17:46:53.767Z,8.90
2017-11-06T17:49:22.090Z,9.63
2017-11-06T17:51:50.408Z,7.90
2017-11-06T17:54:19.488Z,9.67
2017-11-06T17:56:47.767Z,7.80
2017-11-06T17:59:16.071Z,9.40
2017-11-06T18:01:44.451Z,4.40
2017-11-06T18:04:12.752Z,8.30
2017-11-06T18:06:41.032Z,9.83
2017-11-06T18:09:09.351Z,11.10
2017-11-06T18:11:38.422Z,9.93
2017-11-06T18:14:06.897Z,11.77
2017-11-06T18:16:35.212Z,8.90
2017-11-06T18:19:03.504Z,12.77
2017-11-06T18:21:31.784Z,9.80
2017-11-06T18:24:00.091Z,11.63
2017-11-06T18:26:28.367Z,6.30
2017-11-06T18:28:56.683Z,5.90
2017-11-06T18:31:25.769Z,7.00
2017-11-06T18:33:54.047Z,6.33
2017-11-06T18:36:22.409Z,8.73
2017-11-06T18:38:50.736Z,6.07
2017-11-06T18:41:19.821Z,5.97
2017-11-06T18:43:48.167Z,8.73
2017-11-06T18:46:17.237Z,5.13
2017-11-06T18:48:45.508Z,8.07
2017-11-06T18:51:13.858Z,19.10
2017-11-06T18:53:42.156Z,10.40
2017-11-06T18:56:10.442Z,11.53
2017-11-06T18:58:38.793Z,5.50
2017-11-06T19:01:07.071Z,9.07
2017-11-06T19:03:35.375Z,7.50
2017-11-06T19:06:03.687Z,10.43
2017-11-06T19:08:32.767Z,8.70
2017-11-06T19:11:02.555Z,12.50
2017-11-06T19:13:32.644Z,12.20
2017-11-06T19:16:00.987Z,9.10
2017-11-06T19:18:29.393Z,5.47
2017-11-06T19:20:57.691Z,15.93
2017-11-06T19:23:26.028Z,27.08
2017-11-06T19:25:54.312Z,18.90
2017-11-06T19:28:22.635Z,20.83
2017-11-06T19:30:50.922Z,15.63
2017-11-06T19:33:19.226Z,16.10
2017-11-06T19:35:47.519Z,18.53
2017-11-06T19:38:15.857Z,14.30
2017-11-06T19:40:44.912Z,8.17
2017-11-06T19:43:13.201Z,7.90
2017-11-06T19:45:41.536Z,6.70
2017-11-06T19:48:10.728Z,5.10
2017-11-06T19:50:38.999Z,5.97
2017-11-06T19:53:07.327Z,6.50
2017-11-06T19:55:36.578Z,5.30
2017-11-06T19:58:04.869Z,7.30
2017-11-06T20:00:33.184Z,7.77
2017-11-06T20:03:01.547Z,5.67
2017-11-06T20:05:30.020Z,4.10
2017-11-06T20:07:58.292Z,5.43
2017-11-06T20:10:27.344Z,6.03
2017-11-06T20:12:55.853Z,9.97
2017-11-06T20:15:24.135Z,6.70
2017-11-06T20:17:52.521Z,7.10
2017-11-06T20:20:20.831Z,4.47
2017-11-06T20:22:49.108Z,6.57
2017-11-06T20:25:17.420Z,4.17
2017-11-06T20:27:45.736Z,9.83
2017-11-06T20:30:14.024Z,5.90
2017-11-06T20:32:43.124Z,4.20
2017-11-06T20:35:11.404Z,5.50
2017-11-06T20:37:40.447Z,3.57
2017-11-06T20:40:08.803Z,6.40
2017-11-06T20:42:37.846Z,9.97
2017-11-06T20:45:06.127Z,6.70
2017-11-06T20:47:34.564Z,4.70
2017-11-06T20:50:02.964Z,12.70
2017-11-06T20:52:31.261Z,15.73
2017-11-06T20:55:00.332Z,9.13
2017-11-06T20:57:28.624Z,6.10
2017-11-06T20:59:56.935Z,5.83
2017-11-06T21:02:25.236Z,7.77
2017-11-06T21:04:53.541Z,5.00
2017-11-06T21:07:22.616Z,4.20
2017-11-06T21:09:50.919Z,10.60
2017-11-06T21:12:19.266Z,6.80
2017-11-06T21:14:47.589Z,5.20
2017-11-06T21:17:15.866Z,4.90
2017-11-06T21:19:44.489Z,3.13
2017-11-06T21:22:12.782Z,9.27
2017-11-06T21:24:41.880Z,4.10
2017-11-06T21:27:10.163Z,4.63
2017-11-06T21:29:44.115Z,5.70
2017-11-06T21:32:12.443Z,5.00
2017-11-06T21:34:40.727Z,8.13
2017-11-06T21:37:09.995Z,4.23
2017-11-06T21:39:38.293Z,3.67
2017-11-06T21:42:07.574Z,5.20
2017-11-06T21:44:35.850Z,3.70
2017-11-06T21:47:04.128Z,5.33
2017-11-06T21:49:32.632Z,5.77
2017-11-06T21:52:00.940Z,7.07
2017-11-06T21:54:29.215Z,5.67
2017-11-06T21:56:57.516Z,5.20
2017-11-06T21:59:25.885Z,10.83
2017-11-06T22:01:54.177Z,12.60
2017-11-06T22:04:22.463Z,6.83
2017-11-06T22:06:50.816Z,7.30
2017-11-06T22:09:19.103Z,7.37
2017-11-06T22:11:47.443Z,10.07
2017-11-06T22:14:15.751Z,9.00
2017-11-06T22:16:44.056Z,14.83
2017-11-06T22:19:13.111Z,12.40
2017-11-06T22:21:41.622Z,8.13
2017-11-06T22:24:09.900Z,4.07
2017-11-06T22:26:38.184Z,5.67
2017-11-06T22:29:07.827Z,10.70
2017-11-06T22:31:36.111Z,4.53
2017-11-06T22:34:04.404Z,8.80
2017-11-06T22:36:32.712Z,8.93
2017-11-06T22:39:01.003Z,13.33
2017-11-06T22:41:30.076Z,8.33
2017-11-06T22:43:58.387Z,12.20
2017-11-06T22:46:26.807Z,10.83
2017-11-06T22:48:55.123Z,10.73
2017-11-06T22:51:23.416Z,11.50
2017-11-06T22:53:51.739Z,9.03
2017-11-06T22:56:20.016Z,8.03
2017-11-06T22:58:48.298Z,12.03
2017-11-06T23:01:16.619Z,10.70
2017-11-06T23:03:44.931Z,6.30
2017-11-06T23:06:13.977Z,5.50
2017-11-06T23:08:42.319Z,5.43
2017-11-06T23:11:11.377Z,8.10
2017-11-06T23:13:39.672Z,5.57
2017-11-06T23:16:07.988Z,8.27
2017-11-06T23:18:37.094Z,7.93
2017-11-06T23:21:05.375Z,7.43
2017-11-06T23:23:33.696Z,9.00
2017-11-06T23:26:02.776Z,7.20
2017-11-06T23:28:32.783Z,9.83
2017-11-06T23:31:01.071Z,6.55
2017-11-06T23:33:29.349Z,7.63
2017-11-06T23:35:57.655Z,9.33
2017-11-06T23:38:25.959Z,6.10
2017-11-06T23:40:54.328Z,7.73
2017-11-06T23:43:22.843Z,5.73
2017-11-06T23:45:51.127Z,7.20
2017-11-06T23:48:19.408Z,5.57
2017-11-06T23:50:48.939Z,7.33
2017-11-06T23:53:18.731Z,4.77
2017-11-06T23:55:47.041Z,3.13
2017-11-06T23:58:15.364Z,3.03
